createdAt,value
2018-12-17T00:01:07.734Z,45.43
2018-12-17T00:03:38.792Z,35.33
2018-12-17T00:06:09.973Z,37.80
2018-12-17T00:08:39.230Z,40.13
2018-12-17T00:11:09.341Z,35.47
2018-12-17T00:13:38.387Z,39.50
2018-12-17T00:16:07.434Z,36.67
2018-12-17T00:18:36.459Z,35.93
2018-12-17T00:21:05.496Z,39.10
2018-12-17T00:23:34.507Z,35.80
2018-12-17T00:26:03.626Z,37.47
2018-12-17T00:28:32.614Z,34.63
2018-12-17T00:31:02.283Z,40.23
2018-12-17T00:33:31.310Z,36.70
2018-12-17T00:36:00.335Z,34.67
2018-12-17T00:38:29.372Z,41.60
2018-12-17T00:40:58.361Z,43.80
2018-12-17T00:43:27.525Z,39.63
2018-12-17T00:45:56.519Z,38.20
2018-12-17T00:48:25.908Z,39.30
2018-12-17T00:50:54.946Z,39.83
2018-12-17T00:53:24.063Z,35.50
2018-12-17T00:55:53.192Z,33.17
2018-12-17T00:58:23.177Z,37.30
2018-12-17T01:00:52.222Z,35.53
2018-12-17T01:03:21.314Z,40.00
2018-12-17T01:05:51.323Z,34.13
2018-12-17T01:08:21.038Z,35.67
2018-12-17T01:10:53.043Z,33.10
2018-12-17T01:13:22.791Z,45.67
2018-12-17T01:15:51.798Z,35.57
2018-12-17T01:18:20.819Z,38.03
2018-12-17T01:20:49.930Z,39.37
2018-12-17T01:23:18.958Z,38.37
2018-12-17T01:25:48.078Z,43.80
2018-12-17T01:28:22.186Z,47.27
2018-12-17T01:30:48.169Z,43.73
2018-12-17T01:33:17.192Z,35.33
2018-12-17T01:35:46.224Z,45.37
2018-12-17T01:38:15.270Z,42.27
2018-12-17T01:40:44.283Z,39.37
2018-12-17T01:43:13.282Z,37.33
2018-12-17T01:45:42.430Z,39.73
2018-12-17T01:48:11.601Z,46.43
2018-12-17T01:50:40.619Z,47.73
2018-12-17T01:53:09.687Z,40.97
2018-12-17T01:55:38.708Z,45.13
2018-12-17T01:58:07.834Z,43.03
2018-12-17T02:00:36.867Z,46.23
2018-12-17T02:03:06.020Z,36.20
2018-12-17T02:05:35.286Z,38.87
2018-12-17T02:08:04.438Z,44.73
2018-12-17T02:10:33.472Z,39.40
2018-12-17T02:13:02.507Z,42.63
2018-12-17T02:15:31.529Z,42.00
2018-12-17T02:18:00.559Z,38.10
2018-12-17T02:20:29.590Z,37.67
2018-12-17T02:22:58.643Z,40.20
2018-12-17T02:25:27.662Z,35.20
2018-12-17T02:27:56.731Z,37.77
2018-12-17T02:30:25.792Z,39.77
2018-12-17T02:32:54.927Z,40.67
2018-12-17T02:35:25.225Z,36.60
2018-12-17T02:37:54.464Z,42.60
2018-12-17T02:40:23.959Z,32.63
2018-12-17T02:42:53.046Z,41.37
2018-12-17T02:45:22.644Z,41.50
2018-12-17T02:47:51.655Z,34.07
2018-12-17T02:50:20.662Z,31.73
2018-12-17T02:52:49.694Z,41.33
2018-12-17T02:55:18.681Z,35.40
2018-12-17T02:57:47.710Z,35.27
2018-12-17T03:00:17.434Z,43.60
2018-12-17T03:02:46.443Z,34.53
2018-12-17T03:05:15.512Z,37.03
2018-12-17T03:07:44.585Z,32.60
2018-12-17T03:10:13.632Z,36.63
2018-12-17T03:12:42.633Z,37.23
2018-12-17T03:15:11.666Z,36.47
2018-12-17T03:17:40.750Z,39.23
2018-12-17T03:20:09.880Z,39.30
2018-12-17T03:22:39.463Z,32.10
2018-12-17T03:25:09.583Z,37.47
2018-12-17T03:27:38.852Z,32.80
2018-12-17T03:30:08.097Z,32.97
2018-12-17T03:32:37.183Z,34.93
2018-12-17T03:35:06.526Z,34.37
2018-12-17T03:37:35.769Z,38.37
2018-12-17T03:40:05.768Z,38.90
2018-12-17T03:42:34.775Z,34.73
2018-12-17T03:45:04.152Z,34.57
2018-12-17T03:47:33.255Z,33.80
2018-12-17T03:50:04.058Z,31.77
2018-12-17T03:52:33.102Z,31.27
2018-12-17T03:55:02.124Z,31.70
2018-12-17T03:57:31.329Z,31.63
2018-12-17T04:00:01.378Z,24.43
2018-12-17T04:02:32.018Z,27.67
2018-12-17T04:05:01.339Z,32.13
2018-12-17T04:07:31.455Z,30.20
2018-12-17T04:10:01.034Z,25.90
2018-12-17T04:12:30.095Z,27.60
2018-12-17T04:14:59.168Z,26.50
2018-12-17T04:17:28.262Z,30.87
2018-12-17T04:19:57.822Z,25.23
2018-12-17T04:22:26.828Z,21.17
2018-12-17T04:24:55.849Z,30.80
2018-12-17T04:27:24.868Z,22.90
2018-12-17T04:29:53.858Z,19.90
2018-12-17T04:32:22.886Z,32.63
2018-12-17T04:34:52.023Z,20.43
2018-12-17T04:37:21.776Z,21.20
2018-12-17T04:39:50.780Z,25.63
2018-12-17T04:42:19.807Z,30.67
2018-12-17T04:44:48.895Z,23.10
2018-12-17T04:47:17.920Z,29.27
2018-12-17T04:49:46.916Z,24.47
2018-12-17T04:52:15.919Z,23.43
2018-12-17T04:54:44.927Z,22.53
2018-12-17T04:57:13.935Z,33.10
2018-12-17T04:59:43.371Z,28.90
2018-12-17T05:02:12.412Z,26.13
2018-12-17T05:04:41.446Z,24.00
2018-12-17T05:07:10.426Z,26.60
2018-12-17T05:09:40.134Z,25.63
2018-12-17T05:12:09.142Z,27.50
2018-12-17T05:14:38.239Z,29.10
2018-12-17T05:17:07.346Z,26.67
2018-12-17T05:19:36.346Z,23.50
2018-12-17T05:22:05.400Z,25.90
2018-12-17T05:24:35.072Z,31.10
2018-12-17T05:27:04.263Z,38.00
2018-12-17T05:29:33.267Z,33.10
2018-12-17T05:32:02.278Z,33.87
2018-12-17T05:34:31.300Z,30.67
2018-12-17T05:37:00.312Z,27.23
2018-12-17T05:39:29.338Z,32.43
2018-12-17T05:41:58.336Z,35.03
2018-12-17T05:44:27.358Z,29.53
2018-12-17T05:46:56.390Z,29.73
2018-12-17T05:49:25.425Z,31.90
2018-12-17T05:51:54.540Z,34.13
2018-12-17T05:54:23.550Z,37.90
2018-12-17T05:56:52.576Z,34.67
2018-12-17T05:59:28.367Z,33.43
2018-12-17T06:01:52.614Z,28.00
2018-12-17T06:04:21.625Z,32.80
2018-12-17T06:06:50.637Z,41.67
2018-12-17T06:09:19.903Z,34.60
2018-12-17T06:11:48.931Z,36.50
2018-12-17T06:14:17.959Z,32.50
2018-12-17T06:16:46.949Z,36.77
2018-12-17T06:19:16.016Z,43.70
2018-12-17T06:21:45.027Z,24.37
2018-12-17T06:24:14.046Z,36.97
2018-12-17T06:26:43.067Z,33.50
2018-12-17T06:29:12.098Z,35.63
2018-12-17T06:31:41.127Z,33.80
2018-12-17T06:34:10.159Z,30.77
2018-12-17T06:36:39.150Z,38.27
2018-12-17T06:39:08.635Z,31.17
2018-12-17T06:41:37.659Z,39.50
2018-12-17T06:44:06.687Z,38.00
2018-12-17T06:46:35.871Z,38.50
2018-12-17T06:49:05.058Z,42.63
2018-12-17T06:51:34.293Z,42.30
2018-12-17T06:54:03.430Z,38.67
2018-12-17T06:56:32.466Z,42.80
2018-12-17T06:59:01.525Z,40.03
2018-12-17T07:01:30.654Z,42.13
2018-12-17T07:03:59.699Z,41.20
2018-12-17T07:06:28.704Z,42.50
2018-12-17T07:08:57.707Z,47.03
2018-12-17T07:11:26.750Z,41.33
2018-12-17T07:13:55.762Z,41.63
2018-12-17T07:16:24.782Z,41.90
2018-12-17T07:18:53.808Z,38.13
2018-12-17T07:21:22.807Z,38.57
2018-12-17T07:23:51.822Z,38.80
2018-12-17T07:26:20.821Z,33.90
2018-12-17T07:28:49.864Z,33.33
2018-12-17T07:31:19.002Z,37.80
2018-12-17T07:33:48.014Z,36.33
2018-12-17T07:36:17.368Z,35.90
2018-12-17T07:38:46.391Z,35.57
2018-12-17T07:41:15.409Z,36.90
2018-12-17T07:43:44.649Z,41.63
2018-12-17T07:46:13.659Z,32.27
2018-12-17T07:48:42.699Z,31.63
2018-12-17T07:51:11.813Z,32.80
2018-12-17T07:53:40.839Z,32.20
2018-12-17T07:56:09.850Z,35.13
2018-12-17T07:58:38.877Z,32.00
2018-12-17T08:01:07.951Z,37.07
2018-12-17T08:03:37.110Z,31.10
2018-12-17T08:06:06.119Z,38.67
2018-12-17T08:08:35.535Z,30.00
2018-12-17T08:11:04.834Z,26.37
2018-12-17T08:13:33.970Z,24.43
2018-12-17T08:16:03.047Z,21.47
2018-12-17T08:18:32.074Z,24.43
2018-12-17T08:21:01.114Z,26.57
2018-12-17T08:23:30.132Z,28.67
2018-12-17T08:25:59.110Z,25.37
2018-12-17T08:28:28.143Z,25.40
2018-12-17T08:30:57.123Z,26.90
2018-12-17T08:33:26.155Z,22.93
2018-12-17T08:35:55.321Z,29.17
2018-12-17T08:38:24.360Z,25.07
2018-12-17T08:40:53.470Z,31.03
2018-12-17T08:43:22.487Z,25.87
2018-12-17T08:45:51.528Z,21.30
2018-12-17T08:48:20.507Z,23.40
2018-12-17T08:50:49.551Z,22.73
2018-12-17T08:53:18.540Z,21.23
2018-12-17T08:55:47.559Z,18.03
2018-12-17T08:58:16.566Z,18.70
2018-12-17T09:00:45.586Z,18.17
2018-12-17T09:03:14.606Z,18.67
2018-12-17T09:05:43.611Z,18.17
2018-12-17T09:08:12.637Z,15.57
2018-12-17T09:10:41.622Z,19.00
2018-12-17T09:13:10.631Z,15.63
2018-12-17T09:15:39.658Z,18.20
2018-12-17T09:18:08.701Z,18.30
2018-12-17T09:20:37.702Z,19.77
2018-12-17T09:23:06.873Z,14.43
2018-12-17T09:25:35.864Z,15.90
2018-12-17T09:28:05.068Z,14.70
2018-12-17T09:30:41.127Z,18.00
2018-12-17T09:33:05.089Z,19.60
2018-12-17T09:35:34.128Z,18.13
2018-12-17T09:38:03.148Z,13.70
2018-12-17T09:40:32.290Z,18.70
2018-12-17T09:43:01.364Z,19.13
2018-12-17T09:45:30.441Z,18.10
2018-12-17T09:47:59.593Z,18.30
2018-12-17T09:50:28.626Z,15.77
2018-12-17T09:52:57.664Z,15.70
2018-12-17T09:55:26.709Z,15.93
2018-12-17T09:57:55.733Z,22.53
2018-12-17T10:00:25.544Z,18.50
2018-12-17T10:02:54.894Z,23.33
2018-12-17T10:05:23.962Z,18.63
2018-12-17T10:07:53.034Z,20.23
2018-12-17T10:10:22.087Z,18.20
2018-12-17T10:12:51.091Z,13.90
2018-12-17T10:15:20.115Z,15.77
2018-12-17T10:17:49.126Z,14.60
2018-12-17T10:20:18.166Z,15.57
2018-12-17T10:22:47.551Z,18.30
2018-12-17T10:25:16.542Z,20.77
2018-12-17T10:27:45.575Z,18.60
2018-12-17T10:30:14.619Z,20.30
2018-12-17T10:32:43.597Z,17.23
2018-12-17T10:35:12.611Z,22.13
2018-12-17T10:37:41.610Z,14.50
2018-12-17T10:40:10.966Z,22.07
2018-12-17T10:42:39.951Z,20.40
2018-12-17T10:45:09.454Z,13.00
2018-12-17T10:47:38.466Z,19.40
2018-12-17T10:50:07.690Z,13.17
2018-12-17T10:52:36.688Z,11.40
2018-12-17T10:55:05.951Z,10.20
2018-12-17T10:57:34.998Z,15.53
2018-12-17T11:00:04.883Z,12.50
2018-12-17T11:02:34.855Z,18.30
2018-12-17T11:05:11.862Z,16.47
2018-12-17T11:07:40.871Z,12.63
2018-12-17T11:10:10.411Z,15.23
2018-12-17T11:12:39.538Z,19.20
2018-12-17T11:15:10.403Z,14.63
2018-12-17T11:17:39.756Z,13.93
2018-12-17T11:20:10.145Z,14.13
2018-12-17T11:22:40.266Z,18.40
2018-12-17T11:25:09.531Z,16.37
2018-12-17T11:27:38.574Z,16.13
2018-12-17T11:30:10.130Z,21.90
2018-12-17T11:32:43.444Z,17.43
2018-12-17T11:35:12.798Z,12.40
2018-12-17T11:37:41.782Z,12.87
2018-12-17T11:40:10.911Z,17.57
2018-12-17T11:42:39.927Z,15.37
2018-12-17T11:45:09.187Z,22.13
2018-12-17T11:47:38.238Z,14.43
2018-12-17T11:50:07.954Z,13.20
2018-12-17T11:52:36.968Z,15.33
2018-12-17T11:55:07.086Z,11.80
2018-12-17T11:57:48.387Z,11.57
2018-12-17T12:00:19.737Z,12.33
2018-12-17T12:02:48.822Z,19.30
2018-12-17T12:05:17.883Z,9.97
2018-12-17T12:07:46.882Z,11.77
2018-12-17T12:10:15.908Z,12.27
2018-12-17T12:12:44.939Z,14.70
2018-12-17T12:15:13.954Z,8.40
2018-12-17T12:17:43.970Z,7.83
2018-12-17T12:20:13.104Z,10.37
2018-12-17T12:22:42.105Z,9.60
2018-12-17T12:25:11.118Z,14.33
2018-12-17T12:27:40.735Z,14.20
2018-12-17T12:30:10.885Z,13.87
2018-12-17T12:32:39.966Z,7.87
2018-12-17T12:35:10.903Z,9.00
2018-12-17T12:37:39.918Z,3.83
2018-12-17T12:40:09.091Z,13.80
2018-12-17T12:42:38.113Z,12.07
2018-12-17T12:45:07.683Z,17.30
2018-12-17T12:47:36.715Z,10.10
2018-12-17T12:50:06.591Z,17.00
2018-12-17T12:52:35.596Z,11.73
2018-12-17T12:55:05.434Z,17.70
2018-12-17T12:57:35.447Z,14.80
2018-12-17T13:00:07.451Z,10.10
2018-12-17T13:02:36.579Z,13.47
2018-12-17T13:05:05.769Z,15.43
2018-12-17T13:07:34.819Z,12.73
2018-12-17T13:10:05.059Z,17.13
2018-12-17T13:12:34.090Z,23.73
2018-12-17T13:15:03.150Z,12.43
2018-12-17T13:17:32.143Z,20.63
2018-12-17T13:20:01.135Z,10.30
2018-12-17T13:22:30.124Z,14.30
2018-12-17T13:24:59.127Z,21.60
2018-12-17T13:27:29.117Z,14.60
2018-12-17T13:29:58.110Z,16.97
2018-12-17T13:32:28.163Z,14.57
2018-12-17T13:34:57.153Z,12.17
2018-12-17T13:37:26.141Z,15.10
2018-12-17T13:39:55.174Z,15.27
2018-12-17T13:42:24.434Z,18.27
2018-12-17T13:44:53.733Z,15.93
2018-12-17T13:47:22.767Z,17.10
2018-12-17T13:49:51.774Z,10.83
2018-12-17T13:52:26.200Z,12.13
2018-12-17T13:54:55.207Z,11.07
2018-12-17T13:57:24.347Z,16.60
2018-12-17T13:59:53.390Z,18.37
2018-12-17T14:02:23.268Z,16.00
2018-12-17T14:04:52.339Z,12.50
2018-12-17T14:07:21.343Z,13.83
2018-12-17T14:09:55.780Z,14.70
2018-12-17T14:12:24.855Z,14.13
2018-12-17T14:14:53.912Z,14.20
2018-12-17T14:17:28.111Z,12.93
2018-12-17T14:20:02.262Z,13.50
2018-12-17T14:22:31.286Z,16.23
2018-12-17T14:25:00.288Z,13.53
2018-12-17T14:27:29.339Z,12.10
2018-12-17T14:29:58.369Z,16.10
2018-12-17T14:32:27.412Z,13.40
2018-12-17T14:34:56.419Z,13.50
2018-12-17T14:37:25.454Z,9.70
2018-12-17T14:39:54.484Z,13.77
2018-12-17T14:42:23.525Z,16.00
2018-12-17T14:44:52.619Z,28.50
2018-12-17T14:47:21.599Z,15.40
2018-12-17T14:49:50.626Z,16.07
2018-12-17T14:52:19.660Z,11.03
2018-12-17T14:54:48.708Z,20.83
2018-12-17T14:57:17.771Z,27.50
2018-12-17T14:59:46.815Z,11.93
2018-12-17T15:02:16.843Z,14.83
2018-12-17T15:04:45.891Z,18.43
2018-12-17T15:07:14.899Z,10.60
2018-12-17T15:09:43.970Z,17.63
2018-12-17T15:12:13.025Z,9.50
2018-12-17T15:14:42.060Z,13.40
2018-12-17T15:17:11.069Z,17.73
2018-12-17T15:19:40.100Z,16.57
2018-12-17T15:22:09.090Z,18.40
2018-12-17T15:24:40.472Z,14.30
2018-12-17T15:27:09.106Z,17.67
2018-12-17T15:29:38.177Z,10.93
2018-12-17T15:32:07.306Z,22.97
2018-12-17T15:34:36.306Z,16.10
2018-12-17T15:37:05.350Z,16.10
2018-12-17T15:39:34.433Z,24.80
2018-12-17T15:42:03.587Z,14.53
2018-12-17T15:44:32.647Z,14.90
2018-12-17T15:47:01.712Z,15.07
2018-12-17T15:49:30.744Z,12.17
2018-12-17T15:51:59.752Z,15.47
2018-12-17T15:54:28.799Z,10.93
2018-12-17T15:56:57.857Z,17.43
2018-12-17T15:59:26.894Z,12.63
2018-12-17T16:01:55.929Z,22.30
2018-12-17T16:04:25.012Z,17.27
2018-12-17T16:06:54.077Z,17.20
2018-12-17T16:09:23.277Z,15.73
2018-12-17T16:11:52.280Z,15.27
2018-12-17T16:14:21.310Z,17.40
2018-12-17T16:16:50.359Z,18.23
2018-12-17T16:19:19.396Z,17.87
2018-12-17T16:21:48.597Z,22.63
2018-12-17T16:24:17.745Z,17.33
2018-12-17T16:26:46.887Z,18.23
2018-12-17T16:29:15.978Z,18.60
2018-12-17T16:31:44.999Z,19.63
2018-12-17T16:34:14.026Z,23.20
2018-12-17T16:36:43.298Z,13.60
2018-12-17T16:39:12.315Z,19.13
2018-12-17T16:41:41.344Z,17.00
2018-12-17T16:44:10.353Z,15.40
2018-12-17T16:46:39.500Z,12.60
2018-12-17T16:49:08.492Z,20.87
2018-12-17T16:51:37.632Z,20.57
2018-12-17T16:54:06.811Z,15.90
2018-12-17T16:56:35.833Z,42.40
2018-12-17T16:59:04.917Z,39.30
2018-12-17T17:01:33.988Z,19.73
2018-12-17T17:04:03.066Z,20.33
2018-12-17T17:06:32.115Z,23.63
2018-12-17T17:09:01.146Z,26.90
2018-12-17T17:11:30.339Z,17.40
2018-12-17T17:13:59.388Z,21.80
2018-12-17T17:16:28.454Z,29.03
2018-12-17T17:18:57.543Z,20.50
2018-12-17T17:21:26.611Z,20.83
2018-12-17T17:24:02.189Z,28.57
2018-12-17T17:26:31.218Z,17.67
2018-12-17T17:29:00.264Z,20.87
2018-12-17T17:31:29.263Z,22.00
2018-12-17T17:33:58.322Z,30.03
2018-12-17T17:36:27.343Z,25.10
2018-12-17T17:38:56.343Z,23.23
2018-12-17T17:41:25.371Z,22.90
2018-12-17T17:43:54.504Z,25.13
2018-12-17T17:46:23.523Z,22.13
2018-12-17T17:48:52.560Z,31.90
2018-12-17T17:51:21.723Z,21.03
2018-12-17T17:53:50.787Z,28.87
2018-12-17T17:56:19.846Z,22.73
2018-12-17T17:58:48.862Z,23.77
2018-12-17T18:01:18.050Z,31.23
2018-12-17T18:03:47.120Z,26.87
2018-12-17T18:06:16.637Z,25.80
2018-12-17T18:08:45.724Z,29.40
2018-12-17T18:11:14.882Z,21.00
2018-12-17T18:13:43.910Z,27.53
2018-12-17T18:16:12.959Z,27.80
2018-12-17T18:18:42.000Z,20.87
2018-12-17T18:21:11.030Z,27.63
2018-12-17T18:23:40.054Z,27.03
2018-12-17T18:26:09.074Z,34.33
2018-12-17T18:28:38.137Z,30.00
2018-12-17T18:31:07.187Z,39.87
2018-12-17T18:33:36.202Z,33.13
2018-12-17T18:36:05.233Z,28.20
2018-12-17T18:38:34.282Z,30.70
2018-12-17T18:41:03.375Z,25.07
2018-12-17T18:43:32.443Z,31.17
2018-12-17T18:46:01.494Z,28.87
2018-12-17T18:48:30.510Z,31.00
2018-12-17T18:50:59.556Z,24.93
2018-12-17T18:53:28.614Z,24.60
2018-12-17T18:55:57.660Z,39.33
2018-12-17T18:58:26.695Z,27.50
2018-12-17T19:00:55.780Z,29.53
2018-12-17T19:03:24.826Z,30.20
2018-12-17T19:05:54.063Z,27.60
2018-12-17T19:08:23.079Z,34.20
2018-12-17T19:10:52.177Z,35.63
2018-12-17T19:13:21.240Z,27.40
2018-12-17T19:15:50.423Z,30.23
2018-12-17T19:18:19.626Z,26.47
2018-12-17T19:20:48.983Z,26.43
2018-12-17T19:23:18.050Z,35.43
2018-12-17T19:25:47.094Z,30.40
2018-12-17T19:28:16.123Z,26.37
2018-12-17T19:30:45.289Z,28.67
2018-12-17T19:33:14.363Z,29.30
2018-12-17T19:35:43.357Z,30.60
2018-12-17T19:38:12.414Z,21.40
2018-12-17T19:40:41.485Z,23.30
2018-12-17T19:43:11.635Z,36.37
2018-12-17T19:45:40.814Z,25.40
2018-12-17T19:48:09.834Z,34.93
2018-12-17T19:50:39.000Z,33.63
2018-12-17T19:53:08.038Z,28.53
2018-12-17T19:55:37.065Z,31.30
2018-12-17T19:58:06.139Z,30.70
2018-12-17T20:00:35.306Z,33.37
2018-12-17T20:03:05.474Z,30.57
2018-12-17T20:05:34.514Z,30.63
2018-12-17T20:08:03.631Z,26.63
2018-12-17T20:10:32.687Z,28.73
2018-12-17T20:13:01.819Z,27.03
2018-12-17T20:15:30.948Z,22.17
2018-12-17T20:17:59.969Z,22.43
2018-12-17T20:20:29.104Z,34.07
2018-12-17T20:22:58.158Z,32.80
2018-12-17T20:25:28.156Z,24.40
2018-12-17T20:27:57.255Z,25.53
2018-12-17T20:30:27.004Z,33.10
2018-12-17T20:32:56.007Z,36.03
2018-12-17T20:35:25.038Z,28.47
2018-12-17T20:37:54.098Z,23.83
2018-12-17T20:40:23.175Z,23.93
2018-12-17T20:42:52.286Z,33.37
2018-12-17T20:45:21.423Z,24.37
2018-12-17T20:47:50.516Z,30.63
2018-12-17T20:50:19.578Z,27.50
2018-12-17T20:52:48.597Z,31.30
2018-12-17T20:55:17.727Z,28.47
2018-12-17T20:57:46.779Z,33.50
2018-12-17T21:00:15.928Z,29.73
2018-12-17T21:02:45.385Z,29.80
2018-12-17T21:05:14.544Z,29.90
2018-12-17T21:07:43.705Z,26.30
2018-12-17T21:10:12.827Z,28.67
2018-12-17T21:12:41.908Z,28.53
2018-12-17T21:15:11.132Z,29.50
2018-12-17T21:17:40.203Z,27.90
2018-12-17T21:20:09.411Z,36.23
2018-12-17T21:22:38.922Z,24.90
2018-12-17T21:25:08.202Z,26.10
2018-12-17T21:27:38.387Z,28.77
2018-12-17T21:30:08.562Z,26.93
2018-12-17T21:32:37.606Z,31.03
2018-12-17T21:35:07.167Z,29.43
2018-12-17T21:37:36.435Z,30.23
2018-12-17T21:40:05.990Z,30.43
2018-12-17T21:42:34.998Z,25.33
2018-12-17T21:45:06.579Z,29.87
2018-12-17T21:47:35.583Z,21.27
2018-12-17T21:50:05.870Z,23.10
2018-12-17T21:52:34.898Z,26.63
2018-12-17T21:55:04.472Z,37.37
2018-12-17T21:57:34.639Z,23.90
2018-12-17T22:00:04.851Z,20.90
2018-12-17T22:02:35.285Z,26.50
2018-12-17T22:05:04.922Z,34.67
2018-12-17T22:07:33.942Z,22.73
2018-12-17T22:10:04.903Z,23.53
2018-12-17T22:12:33.927Z,26.67
2018-12-17T22:15:03.090Z,20.50
2018-12-17T22:17:32.114Z,33.57
2018-12-17T22:20:01.160Z,21.67
2018-12-17T22:22:30.323Z,22.23
2018-12-17T22:24:59.480Z,33.07
2018-12-17T22:27:28.530Z,31.07
2018-12-17T22:29:57.614Z,19.27
2018-12-17T22:32:26.603Z,21.23
2018-12-17T22:34:56.794Z,26.23
2018-12-17T22:37:25.839Z,15.77
2018-12-17T22:39:56.396Z,24.33
2018-12-17T22:42:25.395Z,26.23
2018-12-17T22:44:54.403Z,22.13
2018-12-17T22:47:23.427Z,20.43
2018-12-17T22:49:52.446Z,23.93
2018-12-17T22:52:21.490Z,25.30
2018-12-17T22:54:50.491Z,24.47
2018-12-17T22:57:19.911Z,22.33
2018-12-17T22:59:48.892Z,27.53
2018-12-17T23:02:18.012Z,25.00
2018-12-17T23:04:48.175Z,23.83
2018-12-17T23:07:17.185Z,34.17
2018-12-17T23:09:57.354Z,24.57
2018-12-17T23:12:37.467Z,33.13
2018-12-17T23:15:17.706Z,33.23
2018-12-17T23:17:45.709Z,34.30
2018-12-17T23:20:14.895Z,28.37
2018-12-17T23:22:46.008Z,32.07
2018-12-17T23:25:17.010Z,29.63
2018-12-17T23:27:49.914Z,32.47
2018-12-17T23:30:21.967Z,30.80
2018-12-17T23:32:50.952Z,27.30
2018-12-17T23:35:19.943Z,41.80
2018-12-17T23:37:48.934Z,28.43
2018-12-17T23:40:17.981Z,31.60
2018-12-17T23:42:46.986Z,26.97
2018-12-17T23:45:19.716Z,43.97
2018-12-17T23:47:48.957Z,33.60
2018-12-17T23:50:18.074Z,32.13
2018-12-17T23:52:47.091Z,37.47
2018-12-17T23:55:16.095Z,39.23
2018-12-17T23:57:45.109Z,33.37
